QFA11 YSSY-KLAX
Flight info
| Callsign | QFA11 |
|---|---|
| Flight time | N/A |
| Altitude | 33000 |
| Route | NOBAR A579 UBLIN/N0492F350 A579 NN B581 GOMIK/N0484F370 B581 WAYSE/N0475F390 B581 FICKY GOATZ2 |
| Aircraft | A388/J-SADE2E3FGHIJ3J4J5M1RWXY/LB1D1 |
Departure
| Time | 2026-04-24 08:10 |
|---|---|
| Airport | Sydney Kingsford Smith International Airport (YSSY) |
Arrival
| Time | N/A |
|---|---|
| Airport | Los Angeles International Airport (KLAX) |
| Time | Latitude | Longitude | Altitude | Speed | Heading |
|---|---|---|---|---|---|
| 2026-04-24 07:49 | -33.93401 | 151.16787 | 30 ft | 0 kts | 251° |
| 2026-04-24 08:00 | -33.93400 | 151.16790 | 26 ft | 3 kts | 251° |
| 2026-04-24 08:00 | -33.93395 | 151.16808 | 28 ft | 3 kts | 251° |
| 2026-04-24 08:01 | -33.93388 | 151.16833 | 31 ft | 2 kts | 255° |
| 2026-04-24 08:01 | -33.93385 | 151.16857 | 31 ft | 3 kts | 283° |
| 2026-04-24 08:01 | -33.93395 | 151.16879 | 31 ft | 3 kts | 320° |
| 2026-04-24 08:01 | -33.93413 | 151.16893 | 31 ft | 3 kts | 337° |
| 2026-04-24 08:02 | -33.93434 | 151.16902 | 32 ft | 3 kts | 345° |
| 2026-04-24 08:02 | -33.93456 | 151.16908 | 31 ft | 3 kts | 348° |
| 2026-04-24 08:02 | -33.93473 | 151.16912 | 30 ft | 0 kts | 347° |
| 2026-04-24 08:06 | -33.93471 | 151.16912 | 30 ft | 2 kts | 347° |
| 2026-04-24 08:07 | -33.93440 | 151.16903 | 32 ft | 9 kts | 346° |
| 2026-04-24 08:07 | -33.93358 | 151.16887 | 30 ft | 15 kts | 7° |
| 2026-04-24 08:07 | -33.93252 | 151.16942 | 29 ft | 19 kts | 14° |
| 2026-04-24 08:07 | -33.93109 | 151.16924 | 30 ft | 21 kts | 347° |
| 2026-04-24 08:08 | -33.93018 | 151.16914 | 28 ft | 15 kts | 20° |
| 2026-04-24 08:08 | -33.92978 | 151.16980 | 26 ft | 0 kts | 75° |
| 2026-04-24 08:08 | -33.92977 | 151.16985 | 26 ft | 4 kts | 76° |
| 2026-04-24 08:09 | -33.92961 | 151.17154 | 29 ft | 8 kts | 112° |
| 2026-04-24 08:09 | -33.93000 | 151.17177 | 26 ft | 9 kts | 166° |
| 2026-04-24 08:09 | -33.93024 | 151.17183 | 27 ft | 0 kts | 168° |
| 2026-04-24 08:09 | -33.93096 | 151.17201 | 28 ft | 48 kts | 168° |
| 2026-04-24 08:10 | -33.93804 | 151.17383 | 23 ft | 150 kts | 168° |
| 2026-04-24 08:10 | -33.94944 | 151.17681 | 535 ft | 173 kts | 171° |
| 2026-04-24 08:10 | -33.96133 | 151.17825 | 1477 ft | 173 kts | 177° |
| 2026-04-24 08:10 | -33.97349 | 151.17755 | 2352 ft | 180 kts | 180° |
| 2026-04-24 08:11 | -33.98656 | 151.17657 | 2805 ft | 197 kts | 180° |
| 2026-04-24 08:11 | -34.00086 | 151.17580 | 3107 ft | 216 kts | 179° |
| 2026-04-24 08:11 | -34.01685 | 151.17531 | 3617 ft | 240 kts | 178° |
| 2026-04-24 08:11 | -34.03402 | 151.17729 | 4175 ft | 261 kts | 166° |
| 2026-04-24 08:12 | -34.05162 | 151.18330 | 5179 ft | 266 kts | 161° |
| 2026-04-24 08:12 | -34.06956 | 151.18947 | 6213 ft | 270 kts | 162° |
| 2026-04-24 08:12 | -34.08791 | 151.19556 | 7193 ft | 277 kts | 162° |
| 2026-04-24 08:12 | -34.10650 | 151.20169 | 8240 ft | 278 kts | 162° |
| 2026-04-24 08:13 | -34.12520 | 151.20787 | 9292 ft | 281 kts | 162° |
| 2026-04-24 08:13 | -34.14411 | 151.21416 | 10345 ft | 284 kts | 162° |
| 2026-04-24 08:13 | -34.16382 | 151.22075 | 10856 ft | 306 kts | 162° |
| 2026-04-24 08:13 | -34.18482 | 151.22780 | 11162 ft | 329 kts | 162° |
| 2026-04-24 08:14 | -34.20705 | 151.23581 | 11778 ft | 337 kts | 156° |
| 2026-04-24 08:14 | -34.22657 | 151.25126 | 12605 ft | 338 kts | 134° |
| 2026-04-24 08:14 | -34.24001 | 151.27444 | 13455 ft | 341 kts | 113° |
| 2026-04-24 08:14 | -34.24557 | 151.30232 | 14280 ft | 345 kts | 93° |
| 2026-04-24 08:15 | -34.24243 | 151.33124 | 15022 ft | 351 kts | 72° |
| 2026-04-24 08:15 | -34.23090 | 151.35731 | 15813 ft | 356 kts | 53° |
| 2026-04-24 08:15 | -34.21323 | 151.37860 | 16540 ft | 362 kts | 43° |
| 2026-04-24 08:15 | -34.19469 | 151.39936 | 17231 ft | 366 kts | 47° |
| 2026-04-24 08:16 | -34.17770 | 151.42235 | 17964 ft | 368 kts | 53° |
| 2026-04-24 08:16 | -34.16251 | 151.44688 | 18666 ft | 371 kts | 57° |
| 2026-04-24 08:16 | -34.14811 | 151.47283 | 19264 ft | 375 kts | 59° |
| 2026-04-24 08:16 | -34.13405 | 151.49951 | 19847 ft | 378 kts | 59° |
| 2026-04-24 08:17 | -34.12001 | 151.52657 | 20424 ft | 382 kts | 60° |
| 2026-04-24 08:17 | -34.10582 | 151.55391 | 20995 ft | 386 kts | 60° |
| 2026-04-24 08:17 | -34.09145 | 151.58149 | 21558 ft | 390 kts | 60° |
| 2026-04-24 08:17 | -34.07690 | 151.60932 | 22109 ft | 394 kts | 60° |
| 2026-04-24 08:18 | -34.06215 | 151.63743 | 22674 ft | 398 kts | 60° |
| 2026-04-24 08:18 | -34.04732 | 151.66568 | 23229 ft | 402 kts | 60° |
| 2026-04-24 08:18 | -34.03227 | 151.69431 | 23785 ft | 406 kts | 60° |
| 2026-04-24 08:18 | -34.01731 | 151.72274 | 24299 ft | 409 kts | 60° |
| 2026-04-24 08:19 | -34.00206 | 151.75168 | 24817 ft | 411 kts | 60° |
| 2026-04-24 08:19 | -33.98669 | 151.78086 | 25280 ft | 414 kts | 60° |
| 2026-04-24 08:19 | -33.97118 | 151.81029 | 25782 ft | 417 kts | 60° |
| 2026-04-24 08:19 | -33.95556 | 151.83989 | 26283 ft | 421 kts | 60° |
| 2026-04-24 08:20 | -33.93979 | 151.86975 | 26809 ft | 424 kts | 60° |
| 2026-04-24 08:20 | -33.92390 | 151.89981 | 27350 ft | 428 kts | 60° |
| 2026-04-24 08:20 | -33.90786 | 151.93012 | 27918 ft | 431 kts | 60° |
| 2026-04-24 08:20 | -33.89168 | 151.96067 | 28517 ft | 434 kts | 60° |
| 2026-04-24 08:21 | -33.87535 | 151.99149 | 29080 ft | 438 kts | 60° |
| 2026-04-24 08:21 | -33.85912 | 152.02208 | 29672 ft | 442 kts | 60° |
| 2026-04-24 08:21 | -33.84253 | 152.05333 | 30287 ft | 445 kts | 60° |
| 2026-04-24 08:21 | -33.82577 | 152.08488 | 30781 ft | 450 kts | 60° |
| 2026-04-24 08:22 | -33.80885 | 152.11669 | 31304 ft | 453 kts | 60° |
| 2026-04-24 08:22 | -33.79176 | 152.14879 | 31801 ft | 457 kts | 60° |
| 2026-04-24 08:22 | -33.77454 | 152.18111 | 32307 ft | 461 kts | 60° |
| 2026-04-24 08:22 | -33.75717 | 152.21368 | 32773 ft | 465 kts | 60° |
| 2026-04-24 08:23 | -33.73964 | 152.24653 | 33259 ft | 469 kts | 60° |
| 2026-04-24 08:23 | -33.72216 | 152.27927 | 33479 ft | 477 kts | 60° |
| 2026-04-24 08:23 | -33.70399 | 152.31330 | 33466 ft | 490 kts | 60° |
| 2026-04-24 08:24 | -33.66705 | 152.38226 | 33473 ft | 491 kts | 60° |
| 2026-04-24 08:24 | -33.63000 | 152.45127 | 33472 ft | 492 kts | 60° |
| 2026-04-24 08:25 | -33.59294 | 152.52020 | 33463 ft | 491 kts | 60° |
| 2026-04-24 08:25 | -33.55616 | 152.58851 | 33468 ft | 490 kts | 60° |
| 2026-04-24 08:26 | -33.51919 | 152.65703 | 33464 ft | 489 kts | 60° |
| 2026-04-24 08:26 | -33.48224 | 152.72539 | 33459 ft | 488 kts | 60° |
| 2026-04-24 08:27 | -33.44530 | 152.79361 | 33453 ft | 488 kts | 60° |
| 2026-04-24 08:27 | -33.40860 | 152.86126 | 33461 ft | 487 kts | 60° |
| 2026-04-24 08:28 | -33.37170 | 152.92914 | 33463 ft | 487 kts | 60° |
| 2026-04-24 08:28 | -33.33477 | 152.99696 | 33453 ft | 486 kts | 60° |
| 2026-04-24 08:29 | -33.29784 | 153.06466 | 33451 ft | 486 kts | 60° |
| 2026-04-24 08:29 | -33.26089 | 153.13225 | 33463 ft | 485 kts | 60° |
| 2026-04-24 08:30 | -33.22421 | 153.19925 | 33462 ft | 485 kts | 60° |
| 2026-04-24 08:30 | -33.18728 | 153.26655 | 33470 ft | 484 kts | 60° |
| 2026-04-24 08:31 | -33.15040 | 153.33368 | 33462 ft | 483 kts | 60° |
| 2026-04-24 08:31 | -33.11352 | 153.40067 | 33459 ft | 483 kts | 60° |
| 2026-04-24 08:32 | -33.07667 | 153.46748 | 33469 ft | 482 kts | 60° |
| 2026-04-24 08:32 | -33.04004 | 153.53378 | 33464 ft | 482 kts | 60° |
| 2026-04-24 08:33 | -33.00316 | 153.60041 | 33450 ft | 481 kts | 60° |
| 2026-04-24 08:33 | -32.96625 | 153.66696 | 33455 ft | 481 kts | 60° |
| 2026-04-24 08:34 | -32.92933 | 153.73343 | 33447 ft | 481 kts | 60° |
| 2026-04-24 08:34 | -32.89268 | 153.79929 | 33458 ft | 481 kts | 60° |
| 2026-04-24 08:35 | -32.85575 | 153.86552 | 33473 ft | 480 kts | 60° |
| 2026-04-24 08:35 | -32.81883 | 153.93164 | 33468 ft | 480 kts | 60° |
| 2026-04-24 08:36 | -32.78190 | 153.99764 | 33447 ft | 479 kts | 60° |
| 2026-04-24 08:36 | -32.74498 | 154.06352 | 33461 ft | 479 kts | 60° |
| 2026-04-24 08:37 | -32.70831 | 154.12882 | 33457 ft | 478 kts | 60° |
| 2026-04-24 08:37 | -32.67138 | 154.19449 | 33459 ft | 478 kts | 60° |
| 2026-04-24 08:38 | -32.63445 | 154.26004 | 33455 ft | 478 kts | 60° |
| 2026-04-24 08:38 | -32.59750 | 154.32550 | 33452 ft | 477 kts | 60° |
| 2026-04-24 08:39 | -32.56051 | 154.39094 | 33457 ft | 477 kts | 60° |
| 2026-04-24 08:39 | -32.52381 | 154.45573 | 33456 ft | 477 kts | 59° |
| 2026-04-24 08:40 | -32.48681 | 154.52094 | 33459 ft | 477 kts | 60° |
| 2026-04-24 08:40 | -32.44983 | 154.58604 | 33450 ft | 476 kts | 60° |
| 2026-04-24 08:41 | -32.41309 | 154.65063 | 33451 ft | 476 kts | 60° |
| 2026-04-24 08:41 | -32.37663 | 154.71592 | 33451 ft | 474 kts | 62° |
| 2026-04-24 08:42 | -32.34391 | 154.78342 | 33460 ft | 473 kts | 64° |
| 2026-04-24 08:42 | -32.31128 | 154.85092 | 33448 ft | 473 kts | 64° |
| 2026-04-24 08:43 | -32.27819 | 154.91806 | 33440 ft | 473 kts | 63° |
| 2026-04-24 08:43 | -32.24500 | 154.98498 | 33450 ft | 472 kts | 63° |
| 2026-04-24 08:44 | -32.21174 | 155.05188 | 33446 ft | 472 kts | 63° |
| 2026-04-24 08:44 | -32.17868 | 155.11829 | 33449 ft | 472 kts | 63° |
| 2026-04-24 08:45 | -32.14538 | 155.18506 | 33450 ft | 472 kts | 63° |
| 2026-04-24 08:45 | -32.11206 | 155.25176 | 33450 ft | 472 kts | 63° |
| 2026-04-24 08:46 | -32.07872 | 155.31837 | 33442 ft | 472 kts | 63° |
| 2026-04-24 08:46 | -32.04536 | 155.38493 | 33441 ft | 471 kts | 63° |
| 2026-04-24 08:47 | -32.01196 | 155.45141 | 33435 ft | 471 kts | 63° |
| 2026-04-24 08:47 | -31.97875 | 155.51744 | 33431 ft | 472 kts | 63° |
| 2026-04-24 08:48 | -31.94527 | 155.58386 | 33430 ft | 472 kts | 63° |
| 2026-04-24 08:48 | -31.91173 | 155.65027 | 33433 ft | 472 kts | 63° |
| 2026-04-24 08:49 | -31.87815 | 155.71666 | 33429 ft | 472 kts | 63° |
| 2026-04-24 08:49 | -31.84454 | 155.78300 | 33431 ft | 472 kts | 63° |
| 2026-04-24 08:50 | -31.81114 | 155.84881 | 33434 ft | 472 kts | 62° |
| 2026-04-24 08:50 | -31.77736 | 155.91524 | 33409 ft | 474 kts | 62° |
| 2026-04-24 08:51 | -31.74349 | 155.98172 | 33422 ft | 474 kts | 62° |
| 2026-04-24 08:51 | -31.70956 | 156.04821 | 33428 ft | 475 kts | 62° |
| 2026-04-24 08:52 | -31.67580 | 156.11426 | 33429 ft | 475 kts | 62° |
| 2026-04-24 08:52 | -31.64176 | 156.18074 | 33428 ft | 475 kts | 62° |
| 2026-04-24 08:53 | -31.60764 | 156.24729 | 33395 ft | 478 kts | 62° |
| 2026-04-24 08:53 | -31.57329 | 156.31411 | 33402 ft | 479 kts | 61° |
| 2026-04-24 08:54 | -31.53887 | 156.38102 | 33406 ft | 479 kts | 61° |
| 2026-04-24 08:54 | -31.50435 | 156.44799 | 33408 ft | 480 kts | 61° |
| 2026-04-24 08:55 | -31.46998 | 156.51450 | 33427 ft | 481 kts | 61° |
| 2026-04-24 08:55 | -31.43524 | 156.58169 | 33368 ft | 484 kts | 60° |
| 2026-04-24 08:56 | -31.39989 | 156.64989 | 33419 ft | 493 kts | 60° |
| 2026-04-24 08:56 | -31.36424 | 156.71854 | 33426 ft | 494 kts | 59° |
| 2026-04-24 08:57 | -31.32853 | 156.78717 | 33427 ft | 494 kts | 59° |
| 2026-04-24 08:57 | -31.29282 | 156.85568 | 33419 ft | 493 kts | 59° |
| 2026-04-24 08:58 | -31.25730 | 156.92372 | 33405 ft | 494 kts | 59° |
| 2026-04-24 08:58 | -31.22148 | 156.99223 | 33408 ft | 494 kts | 59° |
| 2026-04-24 08:59 | -31.18559 | 157.06073 | 33406 ft | 495 kts | 59° |
| 2026-04-24 08:59 | -31.14965 | 157.12921 | 33410 ft | 495 kts | 59° |
| 2026-04-24 09:00 | -31.11369 | 157.19762 | 33423 ft | 495 kts | 59° |
| 2026-04-24 09:00 | -31.07789 | 157.26560 | 33422 ft | 495 kts | 59° |
| 2026-04-24 09:01 | -31.04180 | 157.33405 | 33387 ft | 497 kts | 58° |
| 2026-04-24 09:01 | -31.00586 | 157.40263 | 33351 ft | 490 kts | 59° |
| 2026-04-24 09:02 | -30.97072 | 157.46976 | 33407 ft | 478 kts | 58° |
| 2026-04-24 09:02 | -30.95334 | 157.50190 | 33408 ft | 457 kts | 58° |
| 2026-04-24 09:02 | -30.93688 | 157.53240 | 33405 ft | 433 kts | 58° |
| 2026-04-24 09:02 | -30.92154 | 157.56100 | 33409 ft | 412 kts | 58° |
| 2026-04-24 09:03 | -30.90677 | 157.58870 | 33404 ft | 394 kts | 57° |
| 2026-04-24 09:03 | -30.89264 | 157.61526 | 33405 ft | 377 kts | 58° |
| 2026-04-24 09:03 | -30.87915 | 157.64064 | 33397 ft | 361 kts | 57° |
| 2026-04-24 09:03 | -30.86621 | 157.66498 | 33402 ft | 347 kts | 57° |
| 2026-04-24 09:04 | -30.85379 | 157.68832 | 33407 ft | 332 kts | 57° |
| 2026-04-24 09:04 | -30.84186 | 157.71070 | 33398 ft | 318 kts | 57° |
| 2026-04-24 09:04 | -30.83048 | 157.73205 | 33394 ft | 304 kts | 57° |
| 2026-04-24 09:04 | -30.81975 | 157.75216 | 33396 ft | 289 kts | 57° |
| 2026-04-24 09:05 | -30.80945 | 157.77144 | 33389 ft | 273 kts | 57° |
| 2026-04-24 09:05 | -30.79981 | 157.78999 | 33055 ft | 268 kts | 69° |
| 2026-04-24 09:05 | -30.79138 | 157.80999 | 32065 ft | 285 kts | 76° |
| 2026-04-24 09:05 | -30.78472 | 157.83224 | 31270 ft | 295 kts | 84° |
| 2026-04-24 09:06 | -30.78029 | 157.85519 | 31006 ft | 284 kts | 89° |
| 2026-04-24 09:06 | -30.77782 | 157.87741 | 30859 ft | 271 kts | 92° |
| 2026-04-24 09:06 | -30.77686 | 157.89909 | 30475 ft | 268 kts | 97° |
| 2026-04-24 09:06 | -30.77760 | 157.92082 | 29854 ft | 270 kts | 106° |
| 2026-04-24 09:07 | -30.78049 | 157.94241 | 29280 ft | 270 kts | 110° |
| 2026-04-24 09:07 | -30.78503 | 157.96298 | 28969 ft | 262 kts | 114° |
| 2026-04-24 09:07 | -30.79807 | 158.00131 | 28271 ft | 251 kts | 127° |
| 2026-04-24 09:08 | -30.80680 | 158.01888 | 27735 ft | 251 kts | 134° |
| 2026-04-24 09:08 | -30.81729 | 158.03511 | 27291 ft | 249 kts | 140° |
| 2026-04-24 09:08 | -30.82908 | 158.04952 | 26939 ft | 243 kts | 146° |
| 2026-04-24 09:08 | -30.84208 | 158.06201 | 26482 ft | 242 kts | 152° |
| 2026-04-24 09:09 | -30.85626 | 158.07254 | 26042 ft | 241 kts | 159° |
| 2026-04-24 09:09 | -30.87139 | 158.08097 | 25629 ft | 240 kts | 166° |
| 2026-04-24 09:09 | -30.88702 | 158.08726 | 25346 ft | 235 kts | 170° |
| 2026-04-24 09:09 | -30.90278 | 158.09153 | 25052 ft | 230 kts | 173° |
| 2026-04-24 09:10 | -30.91833 | 158.09396 | 24706 ft | 229 kts | 181° |
| 2026-04-24 09:10 | -30.93448 | 158.09427 | 24187 ft | 236 kts | 188° |
| 2026-04-24 09:10 | -30.95088 | 158.09211 | 23779 ft | 236 kts | 191° |
| 2026-04-24 09:10 | -30.96666 | 158.08816 | 23572 ft | 229 kts | 197° |
| 2026-04-24 09:11 | -30.98180 | 158.08254 | 23153 ft | 230 kts | 202° |
| 2026-04-24 09:11 | -30.99661 | 158.07492 | 22628 ft | 236 kts | 209° |
| 2026-04-24 09:11 | -31.01091 | 158.06520 | 22180 ft | 239 kts | 216° |
| 2026-04-24 09:11 | -31.02420 | 158.05362 | 21811 ft | 239 kts | 222° |
| 2026-04-24 09:12 | -31.03635 | 158.04047 | 21451 ft | 239 kts | 227° |
| 2026-04-24 09:12 | -31.04723 | 158.02614 | 21099 ft | 239 kts | 234° |
| 2026-04-24 09:12 | -31.05696 | 158.01043 | 20727 ft | 240 kts | 240° |
| 2026-04-24 09:12 | -31.06534 | 157.99344 | 20318 ft | 243 kts | 246° |
| 2026-04-24 09:13 | -31.07225 | 157.97536 | 19933 ft | 245 kts | 253° |
| 2026-04-24 09:13 | -31.07749 | 157.95656 | 19584 ft | 244 kts | 260° |
| 2026-04-24 09:13 | -31.08100 | 157.93723 | 19282 ft | 242 kts | 266° |
| 2026-04-24 09:13 | -31.08282 | 157.91775 | 18925 ft | 243 kts | 272° |
| 2026-04-24 09:14 | -31.08290 | 157.89790 | 18504 ft | 246 kts | 278° |
| 2026-04-24 09:14 | -31.08136 | 157.87855 | 18258 ft | 239 kts | 286° |
| 2026-04-24 09:14 | -31.07816 | 157.85932 | 17768 ft | 244 kts | 291° |
| 2026-04-24 09:14 | -31.07329 | 157.84038 | 17409 ft | 242 kts | 297° |
| 2026-04-24 09:15 | -31.06699 | 157.82244 | 17117 ft | 237 kts | 303° |
| 2026-04-24 09:15 | -31.05921 | 157.80536 | 16693 ft | 239 kts | 309° |
| 2026-04-24 09:15 | -31.05004 | 157.78944 | 16387 ft | 235 kts | 317° |
| 2026-04-24 09:15 | -31.03950 | 157.77489 | 15993 ft | 236 kts | 322° |
| 2026-04-24 09:16 | -31.02786 | 157.76164 | 15705 ft | 232 kts | 329° |
| 2026-04-24 09:16 | -31.01545 | 157.74979 | 15392 ft | 229 kts | 333° |
| 2026-04-24 09:16 | -31.00253 | 157.73959 | 15119 ft | 225 kts | 339° |
| 2026-04-24 09:16 | -30.98885 | 157.73080 | 14766 ft | 225 kts | 345° |
| 2026-04-24 09:17 | -30.97451 | 157.72353 | 14438 ft | 224 kts | 351° |
| 2026-04-24 09:17 | -30.95987 | 157.71787 | 14178 ft | 219 kts | 356° |
| 2026-04-24 09:17 | -30.94512 | 157.71388 | 13778 ft | 218 kts | 5° |
| 2026-04-24 09:17 | -30.93001 | 157.71201 | 13355 ft | 218 kts | 12° |
| 2026-04-24 09:18 | -30.91506 | 157.71226 | 13058 ft | 212 kts | 19° |
| 2026-04-24 09:18 | -30.90063 | 157.71430 | 12780 ft | 206 kts | 23° |
| 2026-04-24 09:18 | -30.88704 | 157.71794 | 12476 ft | 201 kts | 33° |
| 2026-04-24 09:18 | -30.87399 | 157.72335 | 12174 ft | 197 kts | 38° |
| 2026-04-24 09:19 | -30.86181 | 157.73027 | 11848 ft | 193 kts | 45° |
| 2026-04-24 09:19 | -30.85071 | 157.73865 | 11525 ft | 189 kts | 53° |
| 2026-04-24 09:19 | -30.84076 | 157.74845 | 11220 ft | 185 kts | 58° |
| 2026-04-24 09:19 | -30.83208 | 157.75910 | 10967 ft | 179 kts | 65° |
| 2026-04-24 09:20 | -30.82471 | 157.77058 | 10645 ft | 176 kts | 71° |
| 2026-04-24 09:20 | -30.81872 | 157.78289 | 10362 ft | 173 kts | 78° |
| 2026-04-24 09:20 | -30.81413 | 157.79562 | 10089 ft | 168 kts | 83° |
| 2026-04-24 09:20 | -30.81098 | 157.80842 | 9778 ft | 166 kts | 90° |
| 2026-04-24 09:21 | -30.80928 | 157.82165 | 9425 ft | 166 kts | 98° |
| 2026-04-24 09:21 | -30.80933 | 157.83492 | 9119 ft | 163 kts | 105° |
| 2026-04-24 09:21 | -30.81097 | 157.84788 | 8852 ft | 159 kts | 110° |
| 2026-04-24 09:21 | -30.81396 | 157.86001 | 8599 ft | 156 kts | 120° |
| 2026-04-24 09:22 | -30.81875 | 157.87159 | 8148 ft | 163 kts | 127° |
| 2026-04-24 09:22 | -30.82533 | 157.88236 | 7871 ft | 162 kts | 135° |
| 2026-04-24 09:22 | -30.83308 | 157.89162 | 7639 ft | 159 kts | 140° |
| 2026-04-24 09:22 | -30.84175 | 157.89965 | 7314 ft | 163 kts | 146° |
| 2026-04-24 09:23 | -30.85134 | 157.90636 | 7084 ft | 161 kts | 153° |
| 2026-04-24 09:23 | -30.86163 | 157.91160 | 6806 ft | 163 kts | 160° |
| 2026-04-24 09:23 | -30.87266 | 157.91553 | 6463 ft | 168 kts | 165° |
| 2026-04-24 09:23 | -30.88418 | 157.91791 | 6204 ft | 169 kts | 174° |
| 2026-04-24 09:24 | -30.89605 | 157.91863 | 5909 ft | 172 kts | 181° |
| 2026-04-24 09:24 | -30.90806 | 157.91742 | 5620 ft | 175 kts | 189° |
| 2026-04-24 09:24 | -30.91999 | 157.91411 | 5325 ft | 178 kts | 197° |
| 2026-04-24 09:24 | -30.93147 | 157.90893 | 5052 ft | 180 kts | 204° |
| 2026-04-24 09:25 | -30.94240 | 157.90218 | 4843 ft | 177 kts | 212° |
| 2026-04-24 09:25 | -30.95266 | 157.89385 | 4533 ft | 181 kts | 218° |
| 2026-04-24 09:25 | -30.96209 | 157.88405 | 4241 ft | 184 kts | 226° |
| 2026-04-24 09:25 | -30.97051 | 157.87275 | 3995 ft | 184 kts | 234° |
| 2026-04-24 09:26 | -30.97760 | 157.86037 | 3740 ft | 186 kts | 241° |
| 2026-04-24 09:26 | -30.98346 | 157.84683 | 3473 ft | 188 kts | 247° |
| 2026-04-24 09:26 | -30.98799 | 157.83245 | 3196 ft | 190 kts | 255° |
| 2026-04-24 09:26 | -30.99114 | 157.81751 | 2919 ft | 193 kts | 261° |
| 2026-04-24 09:27 | -30.99281 | 157.80212 | 2682 ft | 192 kts | 268° |
| 2026-04-24 09:27 | -30.99298 | 157.78651 | 2359 ft | 194 kts | 277° |
| 2026-04-24 09:27 | -30.99148 | 157.77096 | 2062 ft | 194 kts | 287° |
| 2026-04-24 09:27 | -30.98809 | 157.75567 | 1727 ft | 196 kts | 295° |
| 2026-04-24 09:28 | -30.98305 | 157.74093 | 1442 ft | 196 kts | 301° |
| 2026-04-24 09:28 | -30.97668 | 157.72694 | 1172 ft | 195 kts | 310° |
| 2026-04-24 09:28 | -30.96898 | 157.71408 | 898 ft | 193 kts | 316° |
| 2026-04-24 09:28 | -30.96007 | 157.70233 | 537 ft | 198 kts | 326° |
| 2026-04-24 09:29 | -30.94977 | 157.69180 | 314 ft | 195 kts | 333° |
| 2026-04-24 09:29 | -30.93908 | 157.68326 | 306 ft | 180 kts | 344° |
| 2026-04-24 09:29 | -30.92487 | 157.67649 | 1122 ft | 261 kts | 354° |
| 2026-04-24 09:29 | -30.91575 | 157.67302 | 3737 ft | 72 kts | 351° |
| 2026-04-24 09:30 | -30.91262 | 157.67084 | 1597 ft | 51 kts | 355° |